createdAt,value
2018-11-23T08:21:06.382Z,1008.44
2018-11-23T08:22:06.360Z,1008.51
2018-11-23T08:23:06.351Z,1008.52
2018-11-23T08:24:06.355Z,1008.54
2018-11-23T08:25:06.353Z,1008.58
2018-11-23T08:26:06.314Z,1008.55
2018-11-23T08:27:06.305Z,1008.58
2018-11-23T08:28:06.301Z,1008.54
2018-11-23T08:29:06.286Z,1008.52
2018-11-23T08:30:06.292Z,1008.55
2018-11-23T08:31:06.260Z,1008.50
2018-11-23T08:32:06.248Z,1008.52
2018-11-23T08:33:06.242Z,1008.53
2018-11-23T08:34:06.228Z,1008.53
2018-11-23T08:35:06.236Z,1008.49
2018-11-23T08:36:06.207Z,1008.49
2018-11-23T08:37:06.191Z,1008.45
2018-11-23T08:38:06.183Z,1008.41
2018-11-23T08:39:06.173Z,1008.38
2018-11-23T08:40:06.177Z,1008.36
2018-11-23T08:41:06.152Z,1008.38
2018-11-23T08:42:06.135Z,1008.40
2018-11-23T08:43:06.126Z,1008.37
2018-11-23T08:44:06.118Z,1008.38
2018-11-23T08:45:06.122Z,1008.40
2018-11-23T08:46:06.093Z,1008.36
2018-11-23T08:47:06.115Z,1008.32
2018-11-23T08:48:06.067Z,1008.35
2018-11-23T08:49:06.057Z,1008.34
2018-11-23T08:50:06.065Z,1008.33
2018-11-23T08:51:06.038Z,1008.32
2018-11-23T08:52:06.032Z,1008.33
2018-11-23T08:53:06.017Z,1008.35
2018-11-23T08:54:05.999Z,1008.39
2018-11-23T08:55:05.991Z,1008.37
2018-11-23T08:56:05.995Z,1008.36
2018-11-23T08:57:05.971Z,1008.33
2018-11-23T08:58:05.961Z,1008.33
2018-11-23T08:59:05.943Z,1008.35
2018-11-23T09:00:05.934Z,1008.41
2018-11-23T09:01:05.946Z,1008.38
2018-11-23T09:02:05.916Z,1008.42
2018-11-23T09:03:05.904Z,1008.45
2018-11-23T09:04:05.905Z,1008.44
2018-11-23T09:05:05.876Z,1008.45
2018-11-23T09:06:05.876Z,1008.47
2018-11-23T09:07:05.856Z,1008.47
2018-11-23T09:08:05.843Z,1008.50
2018-11-23T09:09:05.836Z,1008.38
2018-11-23T09:10:05.858Z,1008.46
2018-11-23T09:11:05.820Z,1008.48
2018-11-23T09:12:05.797Z,1008.45
2018-11-23T09:13:05.793Z,1008.45
2018-11-23T09:14:05.788Z,1008.44
2018-11-23T09:15:05.777Z,1008.43
2018-11-23T09:16:05.770Z,1008.40
2018-11-23T09:17:05.745Z,1008.44
2018-11-23T09:18:05.733Z,1008.42
2018-11-23T09:19:05.724Z,1008.42
2018-11-23T09:20:05.720Z,1008.35
2018-11-23T09:21:05.719Z,1008.34
2018-11-23T09:22:05.692Z,1008.31
2018-11-23T09:23:05.684Z,1008.30
2018-11-23T09:24:05.662Z,1008.25
2018-11-23T09:25:05.654Z,1008.27
2018-11-23T09:26:05.655Z,1008.28
2018-11-23T09:27:05.644Z,1008.27
2018-11-23T09:28:05.624Z,1008.29
2018-11-23T09:29:05.628Z,1008.25
2018-11-23T09:30:05.596Z,1008.22
2018-11-23T09:31:05.602Z,1008.12
2018-11-23T09:32:05.589Z,1008.14
2018-11-23T09:33:05.583Z,1008.11
2018-11-23T09:34:05.554Z,1008.15
2018-11-23T09:35:05.541Z,1008.13
2018-11-23T09:36:05.549Z,1008.15
2018-11-23T09:37:05.526Z,1008.16
2018-11-23T09:38:05.510Z,1008.17
2018-11-23T09:39:05.494Z,1008.17
2018-11-23T09:40:05.485Z,1008.13
2018-11-23T09:41:05.482Z,1008.12
2018-11-23T09:42:05.478Z,1008.08
2018-11-23T09:43:05.469Z,1008.06
2018-11-23T09:44:05.486Z,1008.02
2018-11-23T09:45:05.428Z,1008.01
2018-11-23T09:46:05.416Z,1007.99
2018-11-23T09:47:09.945Z,1008.00
2018-11-23T09:48:05.403Z,1007.97
2018-11-23T09:49:05.396Z,1007.97
2018-11-23T09:50:05.376Z,1007.91
2018-11-23T09:51:05.363Z,1007.95
2018-11-23T09:52:05.360Z,1007.94
2018-11-23T09:53:05.341Z,1007.92
2018-11-23T09:54:05.338Z,1007.89
2018-11-23T09:55:05.323Z,1007.90
2018-11-23T09:56:05.313Z,1007.88
2018-11-23T09:57:05.304Z,1007.88
2018-11-23T09:58:05.289Z,1007.86
2018-11-23T09:59:05.283Z,1007.89
2018-11-23T10:00:05.260Z,1007.84
2018-11-23T10:02:05.251Z,1007.83
2018-11-23T10:03:05.228Z,1007.84
2018-11-23T10:04:05.218Z,1007.86
2018-11-23T10:05:05.242Z,1007.84
2018-11-23T10:06:05.202Z,1007.83
2018-11-23T10:07:05.199Z,1007.81
2018-11-23T10:08:05.172Z,1007.82
2018-11-23T10:09:05.197Z,1007.85
2018-11-23T10:10:05.154Z,1007.80
2018-11-23T10:11:05.149Z,1007.74
2018-11-23T10:12:05.140Z,1007.72
2018-11-23T10:13:05.137Z,1007.70
2018-11-23T10:14:05.106Z,1007.70
2018-11-23T10:15:05.092Z,1007.71
2018-11-23T10:16:05.081Z,1007.68
2018-11-23T10:17:05.093Z,1007.64
2018-11-23T10:18:05.067Z,1007.63
2018-11-23T10:19:05.059Z,1007.57
2018-11-23T10:20:05.061Z,1007.63
2018-11-23T10:21:05.026Z,1007.60
2018-11-23T10:22:05.031Z,1007.62
2018-11-23T10:23:05.006Z,1007.67
2018-11-23T10:24:05.014Z,1007.64
2018-11-23T10:25:05.000Z,1007.64
2018-11-23T10:26:04.969Z,1007.63
2018-11-23T10:27:04.971Z,1007.59
2018-11-23T10:28:04.953Z,1007.58
2018-11-23T10:29:04.942Z,1007.53
2018-11-23T10:30:04.929Z,1007.58
2018-11-23T10:31:04.922Z,1007.59
2018-11-23T10:32:04.932Z,1007.48
2018-11-23T10:33:04.898Z,1007.51
2018-11-23T10:34:04.885Z,1007.53
2018-11-23T10:35:04.878Z,1007.53
2018-11-23T10:36:04.889Z,1007.50
2018-11-23T10:37:04.886Z,1007.44
2018-11-23T10:38:04.838Z,1007.43
2018-11-23T10:39:04.828Z,1007.40
2018-11-23T10:40:04.816Z,1007.41
2018-11-23T10:41:04.814Z,1007.43
2018-11-23T10:42:04.844Z,1007.40
2018-11-23T10:43:04.813Z,1007.36
2018-11-23T10:44:04.774Z,1007.33
2018-11-23T10:45:04.758Z,1007.38
2018-11-23T10:46:04.755Z,1007.35
2018-11-23T10:47:04.740Z,1007.39
2018-11-23T10:48:04.746Z,1007.33
2018-11-23T10:49:04.737Z,1007.36
2018-11-23T10:50:04.704Z,1007.34
2018-11-23T10:51:04.699Z,1007.36
2018-11-23T10:52:04.684Z,1007.35
2018-11-23T10:53:04.687Z,1007.33
2018-11-23T10:54:04.683Z,1007.35
2018-11-23T10:55:04.648Z,1007.33
2018-11-23T10:56:04.639Z,1007.29
2018-11-23T10:57:04.647Z,1007.27
2018-11-23T10:58:04.630Z,1007.21
2018-11-23T10:59:04.623Z,1007.22
2018-11-23T11:00:04.593Z,1007.17
2018-11-23T11:01:04.595Z,1007.21
2018-11-23T11:02:04.570Z,1007.15
2018-11-23T11:03:04.582Z,1007.13
2018-11-23T11:04:04.567Z,1007.15
2018-11-23T11:05:04.548Z,1007.13
2018-11-23T11:06:04.524Z,1007.12
2018-11-23T11:07:04.519Z,1007.10
2018-11-23T11:08:04.551Z,1007.09
2018-11-23T11:09:04.498Z,1007.09
2018-11-23T11:10:04.501Z,1007.14
2018-11-23T11:11:04.475Z,1007.12
2018-11-23T11:12:04.462Z,1007.10
2018-11-23T11:13:04.458Z,1007.10
2018-11-23T11:14:04.437Z,1007.09
2018-11-23T11:15:04.427Z,1007.09
2018-11-23T11:16:04.418Z,1007.06
2018-11-23T11:17:04.405Z,1007.08
2018-11-23T11:18:04.405Z,1007.11
2018-11-23T11:19:04.378Z,1007.03
2018-11-23T11:20:04.369Z,1007.10
2018-11-23T11:21:04.358Z,1007.05
2018-11-23T11:22:04.346Z,1007.07
2018-11-23T11:23:04.347Z,1007.06
2018-11-23T11:24:04.321Z,1007.13
2018-11-23T11:25:04.311Z,1007.05
2018-11-23T11:26:04.302Z,1006.97
2018-11-23T11:27:04.291Z,1006.96
2018-11-23T11:28:04.288Z,1006.93
2018-11-23T11:29:04.266Z,1006.89
2018-11-23T11:30:04.260Z,1006.90
2018-11-23T11:31:04.252Z,1006.89
2018-11-23T11:32:04.263Z,1006.86
2018-11-23T11:33:04.242Z,1006.86
2018-11-23T11:34:04.213Z,1006.80
2018-11-23T11:35:04.197Z,1006.79
2018-11-23T11:36:04.186Z,1006.74
2018-11-23T11:37:04.176Z,1006.71
2018-11-23T11:38:04.178Z,1006.68
2018-11-23T11:39:04.179Z,1006.67
2018-11-23T11:40:04.140Z,1006.68
2018-11-23T11:41:04.130Z,1006.68
2018-11-23T11:42:04.118Z,1006.63
2018-11-23T11:43:04.151Z,1006.66
2018-11-23T11:44:04.113Z,1006.62
2018-11-23T11:45:04.093Z,1006.63
2018-11-23T11:46:04.074Z,1006.62
2018-11-23T11:47:04.063Z,1006.65
2018-11-23T11:48:04.050Z,1006.60
2018-11-23T11:49:04.057Z,1006.57
2018-11-23T11:50:04.036Z,1006.48
2018-11-23T11:51:04.047Z,1006.49
2018-11-23T11:52:04.006Z,1006.44
2018-11-23T11:53:04.001Z,1006.46
2018-11-23T11:54:03.997Z,1006.48
2018-11-23T11:55:03.975Z,1006.50
2018-11-23T11:56:03.974Z,1006.53
2018-11-23T11:57:03.949Z,1006.48
2018-11-23T11:58:03.938Z,1006.47
2018-11-23T11:59:03.945Z,1006.44
2018-11-23T12:00:03.919Z,1006.40
2018-11-23T12:01:03.927Z,1006.39
2018-11-23T12:02:06.660Z,1006.39
2018-11-23T12:03:04.885Z,1006.35
2018-11-23T12:04:03.904Z,1006.36
2018-11-23T12:05:03.861Z,1006.35
2018-11-23T12:06:03.858Z,1006.34
2018-11-23T12:07:03.845Z,1006.34
2018-11-23T12:08:03.826Z,1006.32
2018-11-23T12:09:03.835Z,1006.33
2018-11-23T12:10:03.813Z,1006.31
2018-11-23T12:11:03.798Z,1006.27
2018-11-23T12:12:03.787Z,1006.30
2018-11-23T12:13:03.769Z,1006.27
2018-11-23T12:14:03.773Z,1006.23
2018-11-23T12:15:03.747Z,1006.25
2018-11-23T12:16:03.752Z,1006.19
2018-11-23T12:17:03.738Z,1006.19
2018-11-23T12:18:03.717Z,1006.22
2018-11-23T12:19:03.721Z,1006.18
2018-11-23T12:20:03.706Z,1006.14
2018-11-23T12:21:03.687Z,1006.11
2018-11-23T12:22:04.260Z,1006.11
2018-11-23T12:23:03.657Z,1006.10
2018-11-23T12:24:03.663Z,1006.03
2018-11-23T12:25:03.673Z,1005.99
2018-11-23T12:26:03.628Z,1005.95
2018-11-23T12:27:03.615Z,1005.95
2018-11-23T12:28:03.611Z,1005.94
2018-11-23T12:29:03.617Z,1005.90
2018-11-23T12:30:03.585Z,1005.85
2018-11-23T12:31:03.572Z,1005.84
2018-11-23T12:32:03.556Z,1005.86
2018-11-23T12:33:03.547Z,1005.84
2018-11-23T12:34:03.539Z,1005.84
2018-11-23T12:35:03.536Z,1005.83
2018-11-23T12:36:03.515Z,1005.77
2018-11-23T12:37:03.503Z,1005.79
2018-11-23T12:38:03.489Z,1005.76
2018-11-23T12:39:03.477Z,1005.78
2018-11-23T12:40:03.480Z,1005.77
2018-11-23T12:41:03.459Z,1005.75
2018-11-23T12:42:03.445Z,1005.78
2018-11-23T12:43:03.433Z,1005.81
2018-11-23T12:44:03.420Z,1005.83
2018-11-23T12:45:03.421Z,1005.83
2018-11-23T12:46:03.399Z,1005.90
2018-11-23T12:47:03.386Z,1005.91
2018-11-23T12:48:03.391Z,1005.85
2018-11-23T12:49:03.366Z,1005.87
2018-11-23T12:50:03.369Z,1005.85
2018-11-23T12:51:03.342Z,1005.84
2018-11-23T12:52:03.330Z,1005.87
2018-11-23T12:53:06.406Z,1005.81
2018-11-23T12:54:03.320Z,1005.83
2018-11-23T12:55:03.309Z,1005.82
2018-11-23T12:56:03.290Z,1005.74
2018-11-23T12:57:03.288Z,1005.77
2018-11-23T12:58:03.265Z,1005.72
2018-11-23T12:59:03.253Z,1005.69
2018-11-23T13:00:03.255Z,1005.64
2018-11-23T13:01:03.230Z,1005.60
2018-11-23T13:02:03.220Z,1005.54
2018-11-23T13:03:03.216Z,1005.54
2018-11-23T13:04:03.199Z,1005.52
2018-11-23T13:05:03.217Z,1005.53
2018-11-23T13:06:03.171Z,1005.47
2018-11-23T13:07:03.163Z,1005.46
2018-11-23T13:08:03.150Z,1005.46
2018-11-23T13:09:03.141Z,1005.42
2018-11-23T13:10:03.141Z,1005.41
2018-11-23T13:11:03.128Z,1005.42
2018-11-23T13:12:03.110Z,1005.42
2018-11-23T13:13:03.096Z,1005.45
2018-11-23T13:14:03.085Z,1005.44
2018-11-23T13:15:03.091Z,1005.46
2018-11-23T13:16:03.063Z,1005.42
2018-11-23T13:17:03.051Z,1005.43
2018-11-23T13:18:03.036Z,1005.41
2018-11-23T13:19:03.026Z,1005.44
2018-11-23T13:20:03.030Z,1005.48
2018-11-23T13:21:03.004Z,1005.46
2018-11-23T13:22:02.994Z,1005.46
2018-11-23T13:23:02.980Z,1005.43
2018-11-23T13:24:02.969Z,1005.42
2018-11-23T13:25:02.971Z,1005.42
2018-11-23T13:26:02.947Z,1005.43
2018-11-23T13:27:02.940Z,1005.43
2018-11-23T13:28:02.929Z,1005.43
2018-11-23T13:29:15.648Z,1005.40
2018-11-23T13:30:03.921Z,1005.37
2018-11-23T13:31:02.894Z,1005.38
2018-11-23T13:32:02.879Z,1005.31
2018-11-23T13:33:02.908Z,1005.36
2018-11-23T13:34:02.861Z,1005.36
2018-11-23T13:35:02.898Z,1005.40
2018-11-23T13:36:02.834Z,1005.38
2018-11-23T13:37:02.830Z,1005.37
2018-11-23T13:38:02.811Z,1005.37
2018-11-23T13:39:02.800Z,1005.39
2018-11-23T13:40:02.813Z,1005.41
2018-11-23T13:41:02.776Z,1005.45
2018-11-23T13:42:02.772Z,1005.40
2018-11-23T13:43:02.754Z,1005.40
2018-11-23T13:44:02.746Z,1005.38
2018-11-23T13:45:02.805Z,1005.42
2018-11-23T13:46:02.721Z,1005.41
2018-11-23T13:47:02.713Z,1005.37
2018-11-23T13:48:02.698Z,1005.33
2018-11-23T13:49:02.687Z,1005.39
2018-11-23T13:50:02.688Z,1005.35
2018-11-23T13:51:02.674Z,1005.34
2018-11-23T13:52:02.654Z,1005.32
2018-11-23T13:53:02.641Z,1005.33
2018-11-23T13:54:02.631Z,1005.33
2018-11-23T13:55:02.632Z,1005.32
2018-11-23T13:56:02.612Z,1005.38
2018-11-23T13:57:02.605Z,1005.36
2018-11-23T13:58:02.586Z,1005.35
2018-11-23T13:59:02.573Z,1005.34
2018-11-23T14:00:02.575Z,1005.32
2018-11-23T14:01:02.557Z,1005.27
2018-11-23T14:02:02.544Z,1005.22
2018-11-23T14:03:02.555Z,1005.20
2018-11-23T14:04:02.517Z,1005.21
2018-11-23T14:05:02.524Z,1005.22
2018-11-23T14:06:02.500Z,1005.19
2018-11-23T14:08:26.447Z,1005.15
2018-11-23T14:09:11.192Z,1005.15
2018-11-23T14:10:11.190Z,1005.19
2018-11-23T14:11:11.172Z,1005.16
2018-11-23T14:12:11.161Z,1005.14
2018-11-23T14:13:11.744Z,1005.11
2018-11-23T14:14:11.145Z,1005.13
2018-11-23T14:15:11.158Z,1005.12
2018-11-23T14:16:11.116Z,1005.13
2018-11-23T14:17:11.105Z,1005.06
2018-11-23T14:18:11.092Z,1005.10
2018-11-23T14:19:11.082Z,1005.12
2018-11-23T14:20:11.083Z,1005.09
2018-11-23T14:21:11.057Z,1005.06
2018-11-23T14:22:11.061Z,1005.05
2018-11-23T14:23:11.034Z,1005.03
2018-11-23T14:24:11.025Z,1005.05
2018-11-23T14:25:11.042Z,1005.01
2018-11-23T14:26:11.043Z,1005.01
2018-11-23T14:27:10.993Z,1005.00
2018-11-23T14:28:10.984Z,1005.02
2018-11-23T14:29:10.972Z,1005.01
2018-11-23T14:30:10.981Z,1005.05
2018-11-23T14:31:10.955Z,1005.04
2018-11-23T14:32:10.936Z,1005.07
2018-11-23T14:33:10.936Z,1005.03
2018-11-23T14:34:10.912Z,1005.09
2018-11-23T14:35:10.909Z,1005.09
2018-11-23T14:36:10.903Z,1005.03
2018-11-23T14:37:10.880Z,1005.04
2018-11-23T14:38:10.870Z,1005.05
2018-11-23T14:39:10.857Z,1005.05
2018-11-23T14:40:10.846Z,1005.08
2018-11-23T14:41:10.846Z,1005.07
2018-11-23T14:42:10.825Z,1005.08
2018-11-23T14:43:10.822Z,1005.08
2018-11-23T14:44:10.843Z,1005.14
2018-11-23T14:45:10.786Z,1005.07
2018-11-23T14:46:10.830Z,1005.09
2018-11-23T14:47:10.767Z,1005.11
2018-11-23T14:48:10.755Z,1005.11
2018-11-23T14:49:10.758Z,1005.19
2018-11-23T14:50:10.749Z,1005.17
2018-11-23T14:51:10.729Z,1005.14
2018-11-23T14:52:10.710Z,1005.12
2018-11-23T14:53:10.712Z,1005.16
2018-11-23T14:54:10.698Z,1005.15
2018-11-23T14:55:10.676Z,1005.10
2018-11-23T14:56:10.678Z,1005.09
2018-11-23T14:57:10.653Z,1005.10
2018-11-23T14:58:10.651Z,1005.05
2018-11-23T14:59:10.633Z,1005.10
2018-11-23T15:00:10.621Z,1005.04
2018-11-23T15:01:10.616Z,1004.99
2018-11-23T15:02:10.599Z,1005.02
2018-11-23T15:03:10.589Z,1004.98
2018-11-23T15:04:10.575Z,1004.98
2018-11-23T15:05:10.569Z,1004.98
2018-11-23T15:06:10.562Z,1004.95
2018-11-23T15:07:10.542Z,1004.92
2018-11-23T15:08:10.531Z,1004.94
2018-11-23T15:09:10.524Z,1004.96
2018-11-23T15:10:10.510Z,1004.93
2018-11-23T15:11:10.505Z,1004.93
2018-11-23T15:12:10.502Z,1004.95
2018-11-23T15:13:10.476Z,1004.91
2018-11-23T15:14:10.519Z,1004.97
2018-11-23T15:15:10.451Z,1004.93
2018-11-23T15:16:10.455Z,1004.96
2018-11-23T15:17:10.431Z,1004.90
2018-11-23T15:18:10.421Z,1004.87
2018-11-23T15:19:10.415Z,1004.86
2018-11-23T15:20:10.401Z,1004.82
2018-11-23T15:21:10.395Z,1004.81
2018-11-23T15:22:10.376Z,1004.83
2018-11-23T15:23:10.373Z,1004.79
2018-11-23T15:24:10.354Z,1004.84
2018-11-23T15:25:10.359Z,1004.80
2018-11-23T15:26:10.350Z,1004.85
2018-11-23T15:27:10.321Z,1004.76
2018-11-23T15:28:10.322Z,1004.75
2018-11-23T15:29:10.301Z,1004.76
2018-11-23T15:30:10.286Z,1004.73
2018-11-23T15:31:10.289Z,1004.75
2018-11-23T15:32:10.267Z,1004.74
2018-11-23T15:33:10.252Z,1004.71
2018-11-23T15:34:10.243Z,1004.72
2018-11-23T15:35:10.230Z,1004.76
2018-11-23T15:36:10.238Z,1004.72
2018-11-23T15:37:10.210Z,1004.75
2018-11-23T15:38:10.545Z,1004.74
2018-11-23T15:39:10.191Z,1004.72
2018-11-23T15:40:10.176Z,1004.70
2018-11-23T15:41:10.191Z,1004.71
2018-11-23T15:42:10.157Z,1004.71
2018-11-23T15:43:10.144Z,1004.71
2018-11-23T15:44:10.132Z,1004.74
2018-11-23T15:45:10.121Z,1004.72
2018-11-23T15:46:10.123Z,1004.69
2018-11-23T15:47:10.103Z,1004.67
2018-11-23T15:48:10.103Z,1004.62
2018-11-23T15:49:10.075Z,1004.65
2018-11-23T15:50:10.064Z,1004.66
2018-11-23T15:51:10.074Z,1004.63
2018-11-23T15:52:10.045Z,1004.58
2018-11-23T15:53:10.035Z,1004.53
2018-11-23T15:54:10.022Z,1004.53
2018-11-23T15:55:10.008Z,1004.50
2018-11-23T15:56:10.004Z,1004.45
2018-11-23T15:57:10.001Z,1004.49
2018-11-23T15:58:09.972Z,1004.50
2018-11-23T15:59:09.967Z,1004.46
2018-11-23T16:01:22.929Z,1004.39
2018-11-23T16:02:18.662Z,1004.39
2018-11-23T16:03:18.652Z,1004.37
2018-11-23T16:04:18.643Z,1004.38
2018-11-23T16:05:18.815Z,1004.35
2018-11-23T16:06:18.620Z,1004.35
2018-11-23T16:07:18.629Z,1004.34
2018-11-23T16:08:18.593Z,1004.33
2018-11-23T16:09:18.586Z,1004.32
2018-11-23T16:10:18.575Z,1004.32
2018-11-23T16:11:18.613Z,1004.32
2018-11-23T16:12:18.578Z,1004.29
2018-11-23T16:13:18.565Z,1004.23
2018-11-23T16:14:18.536Z,1004.27
2018-11-23T16:15:18.522Z,1004.25
2018-11-23T16:16:18.505Z,1004.28
2018-11-23T16:17:18.508Z,1004.33
2018-11-23T16:18:18.497Z,1004.35
2018-11-23T16:19:18.470Z,1004.37
2018-11-23T16:20:18.460Z,1004.35
2018-11-23T16:21:18.449Z,1004.40
2018-11-23T16:22:18.453Z,1004.44
2018-11-23T16:23:18.440Z,1004.40
2018-11-23T16:24:18.423Z,1004.37
2018-11-23T16:25:18.402Z,1004.42
2018-11-23T16:26:18.396Z,1004.43
2018-11-23T16:27:18.409Z,1004.45
2018-11-23T16:28:18.378Z,1004.40
2018-11-23T16:29:18.369Z,1004.41
2018-11-23T16:30:18.347Z,1004.43
2018-11-23T16:31:18.387Z,1004.42
2018-11-23T16:32:18.356Z,1004.46
2018-11-23T16:33:18.318Z,1004.42
2018-11-23T16:34:18.335Z,1004.47
2018-11-23T16:35:18.304Z,1004.47
2018-11-23T16:36:18.315Z,1004.50
2018-11-23T16:37:18.324Z,1004.48
2018-11-23T16:38:18.264Z,1004.46
2018-11-23T16:39:18.250Z,1004.44
2018-11-23T16:40:18.260Z,1004.44
2018-11-23T16:41:18.226Z,1004.48
2018-11-23T16:42:18.238Z,1004.48
2018-11-23T16:43:18.202Z,1004.44
2018-11-23T16:44:18.193Z,1004.40
2018-11-23T16:45:18.184Z,1004.42
2018-11-23T16:46:18.167Z,1004.40
2018-11-23T16:47:18.167Z,1004.34
2018-11-23T16:48:18.145Z,1004.38
2018-11-23T16:49:18.135Z,1004.34
2018-11-23T16:50:18.124Z,1004.33
2018-11-23T16:51:18.117Z,1004.32
2018-11-23T16:52:18.114Z,1004.29
2018-11-23T16:53:18.093Z,1004.27
2018-11-23T16:54:18.090Z,1004.28
2018-11-23T16:55:18.083Z,1004.26
2018-11-23T16:56:18.066Z,1004.25
2018-11-23T16:57:18.425Z,1004.19
2018-11-23T16:59:27.009Z,1004.23
2018-11-23T17:02:03.712Z,1004.28
2018-11-23T17:04:53.145Z,1004.31
2018-11-23T17:05:52.892Z,1004.24
2018-11-23T17:06:52.890Z,1004.27
2018-11-23T17:07:52.875Z,1004.22
2018-11-23T17:08:52.858Z,1004.21
2018-11-23T17:09:52.857Z,1004.25
2018-11-23T17:10:52.829Z,1004.18
2018-11-23T17:11:52.856Z,1004.14
2018-11-23T17:12:52.839Z,1004.14
2018-11-23T17:13:52.796Z,1004.20
2018-11-23T17:14:52.861Z,1004.21
2018-11-23T17:15:52.776Z,1004.15
2018-11-23T17:16:52.767Z,1004.18
2018-11-23T17:17:52.776Z,1004.16
2018-11-23T17:18:52.753Z,1004.18
2018-11-23T17:19:52.754Z,1004.17
2018-11-23T17:20:52.727Z,1004.21
2018-11-23T17:21:52.709Z,1004.20
2018-11-23T17:22:52.713Z,1004.20
2018-11-23T17:23:52.685Z,1004.19
2018-11-23T17:24:52.681Z,1004.19
2018-11-23T17:25:52.663Z,1004.15
2018-11-23T17:26:52.670Z,1004.14
2018-11-23T17:27:52.658Z,1004.15
2018-11-23T17:28:52.670Z,1004.11
2018-11-23T17:29:52.621Z,1004.13
2018-11-23T17:30:52.615Z,1004.16
2018-11-23T17:31:52.600Z,1004.22
2018-11-23T17:32:52.610Z,1004.14
2018-11-23T17:33:52.581Z,1004.17
2018-11-23T17:34:52.585Z,1004.11
2018-11-23T17:35:52.568Z,1004.13
2018-11-23T17:36:52.541Z,1004.03
2018-11-23T17:37:52.542Z,1004.01
2018-11-23T17:38:52.524Z,1004.00
2018-11-23T17:39:52.509Z,1003.98
2018-11-23T17:40:52.501Z,1003.95
2018-11-23T17:41:52.485Z,1003.96
2018-11-23T17:42:52.504Z,1003.92
2018-11-23T17:43:52.464Z,1003.91
2018-11-23T17:44:52.472Z,1003.92
2018-11-23T17:45:52.444Z,1003.92
2018-11-23T17:46:52.430Z,1003.83
2018-11-23T17:47:52.434Z,1003.86
2018-11-23T17:48:52.407Z,1003.82
2018-11-23T17:49:52.398Z,1003.82
2018-11-23T17:50:52.388Z,1003.80
2018-11-23T17:51:52.392Z,1003.80
2018-11-23T17:52:52.375Z,1003.76
2018-11-23T17:53:52.353Z,1003.79
2018-11-23T17:54:52.345Z,1003.76
2018-11-23T17:55:52.343Z,1003.74
2018-11-23T17:56:52.321Z,1003.72
2018-11-23T17:57:52.319Z,1003.70
2018-11-23T17:58:52.303Z,1003.65
2018-11-23T17:59:52.292Z,1003.59
2018-11-23T18:00:52.271Z,1003.59
2018-11-23T18:01:52.267Z,1003.51
2018-11-23T18:02:52.274Z,1003.54
2018-11-23T18:03:52.241Z,1003.53
2018-11-23T18:04:52.231Z,1003.48
2018-11-23T18:05:52.220Z,1003.46
2018-11-23T18:06:52.209Z,1003.44
2018-11-23T18:07:52.218Z,1003.42
2018-11-23T18:08:52.203Z,1003.48
2018-11-23T18:09:52.174Z,1003.45
2018-11-23T18:10:52.163Z,1003.46
2018-11-23T18:11:52.150Z,1003.42
2018-11-23T18:12:52.141Z,1003.45
2018-11-23T18:13:52.156Z,1003.43
2018-11-23T18:14:52.126Z,1003.42
2018-11-23T18:15:52.109Z,1003.40
2018-11-23T18:16:52.094Z,1003.38
2018-11-23T18:17:52.084Z,1003.35
2018-11-23T18:18:52.086Z,1003.36
2018-11-23T18:19:52.074Z,1003.33
2018-11-23T18:20:52.067Z,1003.33
2018-11-23T18:21:52.040Z,1003.30
2018-11-23T18:22:52.030Z,1003.30
2018-11-23T18:23:52.032Z,1003.27
2018-11-23T18:24:52.007Z,1003.29
2018-11-23T18:25:52.019Z,1003.30
2018-11-23T18:26:51.984Z,1003.31
2018-11-23T18:27:51.976Z,1003.29
2018-11-23T18:28:51.974Z,1003.28
2018-11-23T18:29:51.954Z,1003.24
2018-11-23T18:30:51.947Z,1003.21
2018-11-23T18:31:51.955Z,1003.17
2018-11-23T18:32:51.917Z,1003.15
2018-11-23T18:33:51.923Z,1003.20
2018-11-23T18:34:51.897Z,1003.19
2018-11-23T18:35:51.887Z,1003.22
2018-11-23T18:36:51.871Z,1003.16
2018-11-23T18:37:51.878Z,1003.16
2018-11-23T18:38:51.859Z,1003.15
2018-11-23T18:39:51.839Z,1003.09
2018-11-23T18:40:51.833Z,1003.11
2018-11-23T18:41:51.820Z,1003.12
2018-11-23T18:42:51.822Z,1003.08
2018-11-23T18:43:51.814Z,1002.99
2018-11-23T18:44:51.782Z,1002.91
2018-11-23T18:45:51.772Z,1002.91
2018-11-23T18:46:51.764Z,1002.96
2018-11-23T18:47:51.757Z,1002.96
2018-11-23T18:48:51.746Z,1003.02
2018-11-23T18:49:51.752Z,1003.04
2018-11-23T18:50:51.715Z,1003.08
2018-11-23T18:51:51.706Z,1003.06
2018-11-23T18:52:51.694Z,1003.13
2018-11-23T18:53:51.700Z,1003.13
2018-11-23T18:54:51.671Z,1003.14
2018-11-23T18:55:51.660Z,1003.06
2018-11-23T18:56:52.550Z,1003.03
2018-11-23T18:57:51.678Z,1002.98
2018-11-23T18:58:51.640Z,1002.93
2018-11-23T18:59:51.615Z,1002.87
2018-11-23T19:00:51.608Z,1002.92
2018-11-23T19:01:51.614Z,1002.91
2018-11-23T19:02:51.583Z,1002.86
2018-11-23T19:03:51.598Z,1002.94
2018-11-23T19:04:51.560Z,1003.02
2018-11-23T19:05:51.558Z,1003.09
2018-11-23T19:06:51.648Z,1003.14
2018-11-23T19:07:51.527Z,1003.17
2018-11-23T19:08:51.532Z,1003.15
2018-11-23T19:09:51.510Z,1003.22
2018-11-23T19:10:51.492Z,1003.25
2018-11-23T19:11:51.496Z,1003.34
2018-11-23T19:12:51.468Z,1003.31
2018-11-23T19:13:51.456Z,1003.34
2018-11-23T19:14:51.459Z,1003.36
2018-11-23T19:15:51.447Z,1003.35
2018-11-23T19:16:51.425Z,1003.38
2018-11-23T19:17:51.414Z,1003.37
2018-11-23T19:18:51.402Z,1003.41
2018-11-23T19:19:51.400Z,1003.41
2018-11-23T19:20:51.389Z,1003.41
2018-11-23T19:21:51.402Z,1003.34
2018-11-23T19:22:51.361Z,1003.27
2018-11-23T19:23:51.355Z,1003.21
2018-11-23T19:24:51.348Z,1003.19
2018-11-23T19:25:51.328Z,1003.17
2018-11-23T19:26:51.315Z,1003.14
2018-11-23T19:27:51.321Z,1003.13
2018-11-23T19:28:51.297Z,1003.09
2018-11-23T19:29:51.296Z,1003.12
2018-11-23T19:30:51.269Z,1003.01
2018-11-23T19:31:51.257Z,1003.00
2018-11-23T19:32:51.252Z,1002.99
2018-11-23T19:33:51.350Z,1002.96
2018-11-23T19:34:51.261Z,1002.88
2018-11-23T19:35:51.219Z,1002.85
2018-11-23T19:36:51.206Z,1002.89
2018-11-23T19:37:51.229Z,1002.83
2018-11-23T19:38:51.205Z,1002.82
2018-11-23T19:39:51.187Z,1002.78
2018-11-23T19:40:51.176Z,1002.83
2018-11-23T19:41:51.150Z,1002.79
2018-11-23T19:42:51.134Z,1002.75
2018-11-23T19:43:51.127Z,1002.70
2018-11-23T19:44:51.126Z,1002.66
2018-11-23T19:45:51.106Z,1002.63
2018-11-23T19:46:51.091Z,1002.57
2018-11-23T19:47:51.081Z,1002.58
2018-11-23T19:48:51.071Z,1002.63
2018-11-23T19:49:51.069Z,1002.68
2018-11-23T19:50:51.044Z,1002.69
2018-11-23T19:51:51.048Z,1002.67
2018-11-23T19:52:51.035Z,1002.67
2018-11-23T19:53:51.010Z,1002.69
2018-11-23T19:54:51.013Z,1002.67
2018-11-23T19:55:51.032Z,1002.65
2018-11-23T19:56:50.983Z,1002.60
2018-11-23T19:57:50.967Z,1002.61
2018-11-23T19:58:50.955Z,1002.62
2018-11-23T19:59:50.963Z,1002.60
2018-11-23T20:00:50.932Z,1002.52
2018-11-23T20:01:50.932Z,1002.47
2018-11-23T20:02:50.940Z,1002.53
2018-11-23T20:03:50.912Z,1002.51
2018-11-23T20:04:50.889Z,1002.45
2018-11-23T20:05:50.891Z,1002.45
2018-11-23T20:06:50.874Z,1002.52
2018-11-23T20:07:50.867Z,1002.44
2018-11-23T20:08:50.856Z,1002.51
2018-11-23T20:09:50.843Z,1002.52
2018-11-23T20:10:50.838Z,1002.55
2018-11-23T20:11:50.824Z,1002.53
2018-11-23T20:12:51.630Z,1002.53
2018-11-23T20:13:50.807Z,1002.56
2018-11-23T20:14:50.800Z,1002.54
2018-11-23T20:15:50.787Z,1002.59
2018-11-23T20:16:50.758Z,1002.57
2018-11-23T20:17:50.759Z,1002.56
2018-11-23T20:18:50.730Z,1002.53
2018-11-23T20:19:50.738Z,1002.53
2018-11-23T20:20:50.736Z,1002.53
2018-11-23T20:21:50.699Z,1002.52
2018-11-23T20:22:50.690Z,1002.45
2018-11-23T20:23:50.683Z,1002.40
2018-11-23T20:24:50.708Z,1002.35
2018-11-23T20:25:50.685Z,1002.32
2018-11-23T20:26:50.647Z,1002.30
2018-11-23T20:27:50.699Z,1002.28
2018-11-23T20:28:50.618Z,1002.26
2018-11-23T20:29:50.618Z,1002.29
2018-11-23T20:30:50.635Z,1002.29
2018-11-23T20:31:50.615Z,1002.25
2018-11-23T20:32:50.623Z,1002.31
2018-11-23T20:33:50.588Z,1002.25